createdAt,value
2022-09-12T00:01:36.626Z,100062.84
2022-09-12T00:04:03.445Z,100030.53
2022-09-12T00:06:32.892Z,100040.56
2022-09-12T00:09:03.699Z,100053.53
2022-09-12T00:11:31.405Z,100078.34
2022-09-12T00:14:01.152Z,100044.78
2022-09-12T00:16:31.061Z,100046.91
2022-09-12T00:18:58.041Z,99989.94
2022-09-12T00:21:25.416Z,100034.63
2022-09-12T00:23:52.378Z,100040.16
2022-09-12T00:26:20.675Z,100028.94
2022-09-12T00:28:48.343Z,100018.06
2022-09-12T00:31:18.935Z,100061.44
2022-09-12T00:33:46.063Z,99996.09
2022-09-12T00:36:15.729Z,99987.78
2022-09-12T00:38:44.143Z,100010.56
2022-09-12T00:41:18.051Z,100033.78
2022-09-12T00:43:48.771Z,99968.97
2022-09-12T00:46:20.805Z,99994.84
2022-09-12T00:49:00.498Z,99991.34
2022-09-12T00:51:30.678Z,99961.47
2022-09-12T00:54:00.246Z,99999.16
2022-09-12T00:56:27.663Z,99927.91
2022-09-12T00:59:02.475Z,99928.13
2022-09-12T01:01:32.354Z,99962.72
2022-09-12T01:04:09.228Z,99934.53
2022-09-12T01:06:49.244Z,99880.81
2022-09-12T01:09:19.302Z,99983.97
2022-09-12T01:11:48.679Z,99975.50
2022-09-12T01:14:17.108Z,99937.78
2022-09-12T01:16:45.428Z,99973.03
2022-09-12T01:19:49.859Z,99962.47
2022-09-12T01:22:25.430Z,99968.25
2022-09-12T01:24:55.114Z,99955.97
2022-09-12T01:27:36.691Z,99898.66
2022-09-12T01:30:40.475Z,99945.81
2022-09-12T01:33:28.603Z,99936.59
2022-09-12T01:36:34.629Z,99890.31
2022-09-12T01:39:06.090Z,99947.28
2022-09-12T01:41:52.845Z,99869.16
2022-09-12T01:44:45.241Z,99940.47
2022-09-12T01:47:41.428Z,99902.66
2022-09-12T01:50:16.403Z,99935.13
2022-09-12T01:53:35.302Z,99854.28
2022-09-12T01:56:14.458Z,99842.91
2022-09-12T01:58:54.205Z,99918.88
2022-09-12T02:01:47.570Z,99891.81
2022-09-12T02:04:19.166Z,99919.69
2022-09-12T02:06:58.095Z,99913.97
2022-09-12T02:09:39.999Z,99909.53
2022-09-12T02:12:11.635Z,99876.75
2022-09-12T02:14:44.524Z,99867.13
2022-09-12T02:17:15.291Z,99828.03
2022-09-12T02:19:52.207Z,99817.00
2022-09-12T02:22:22.943Z,99842.31
2022-09-12T02:24:54.200Z,99822.88
2022-09-12T02:27:23.928Z,99847.53
2022-09-12T02:29:50.918Z,99825.31
2022-09-12T02:32:26.521Z,99826.75
2022-09-12T02:35:07.475Z,99874.44
2022-09-12T02:37:42.571Z,99871.69
2022-09-12T02:40:09.932Z,99810.75
2022-09-12T02:42:37.696Z,99816.75
2022-09-12T02:45:05.573Z,99817.00
2022-09-12T02:47:48.062Z,99865.53
2022-09-12T02:50:15.003Z,99864.06
2022-09-12T02:52:43.101Z,99786.50
2022-09-12T02:55:11.792Z,99835.97
2022-09-12T02:57:38.875Z,99809.41
2022-09-12T03:00:07.390Z,99735.28
2022-09-12T03:03:20.426Z,99779.13
2022-09-12T03:05:52.638Z,99762.81
2022-09-12T03:08:28.421Z,99839.06
2022-09-12T03:11:14.067Z,99828.00
2022-09-12T03:13:46.724Z,99821.66
2022-09-12T03:16:31.892Z,99832.31
2022-09-12T03:19:20.320Z,99823.69
2022-09-12T03:22:29.179Z,99818.50
2022-09-12T03:25:14.936Z,99771.06
2022-09-12T03:28:06.262Z,99759.56
2022-09-12T03:30:41.920Z,99762.78
2022-09-12T03:33:11.914Z,99780.47
2022-09-12T03:35:39.183Z,99765.81
2022-09-12T03:38:08.120Z,99813.50
2022-09-12T03:40:36.149Z,99830.09
2022-09-12T03:43:03.921Z,99777.34
2022-09-12T03:45:31.206Z,99823.50
2022-09-12T03:47:58.780Z,99818.19
2022-09-12T03:50:25.819Z,99767.34
2022-09-12T03:52:52.611Z,99795.59
2022-09-12T03:55:20.011Z,99791.00
2022-09-12T03:57:46.727Z,99788.84
2022-09-12T04:00:17.667Z,99773.84
2022-09-12T04:02:46.531Z,99758.34
2022-09-12T04:05:13.251Z,99775.28
2022-09-12T04:07:39.899Z,99745.41
2022-09-12T04:10:07.288Z,99787.31
2022-09-12T04:12:35.639Z,99783.34
2022-09-12T04:15:02.741Z,99775.78
2022-09-12T04:17:29.388Z,99778.19
2022-09-12T04:19:56.051Z,99787.31
2022-09-12T04:22:22.734Z,99772.06
2022-09-12T04:24:49.497Z,99794.91
2022-09-12T04:27:16.163Z,99775.19
2022-09-12T04:29:42.802Z,99767.00
2022-09-12T04:32:09.645Z,99757.41
2022-09-12T04:34:36.423Z,99814.34
2022-09-12T04:37:03.123Z,99771.56
2022-09-12T04:39:29.805Z,99789.31
2022-09-12T04:41:56.655Z,99775.66
2022-09-12T04:44:23.332Z,99797.16
2022-09-12T04:46:50.250Z,99752.75
2022-09-12T04:49:17.519Z,99763.72
2022-09-12T04:51:44.461Z,99776.78
2022-09-12T04:54:13.992Z,99788.81
2022-09-12T04:56:42.296Z,99782.59
2022-09-12T04:59:10.980Z,99776.59
2022-09-12T05:01:37.653Z,99767.75
2022-09-12T05:04:04.564Z,99855.72
2022-09-12T05:06:34.607Z,99770.00
2022-09-12T05:09:02.759Z,99830.22
2022-09-12T05:12:02.197Z,99806.75
2022-09-12T05:14:19.770Z,99834.50
2022-09-12T05:16:49.449Z,99835.94
2022-09-12T05:19:17.332Z,99787.31
2022-09-12T05:21:44.018Z,99809.38
2022-09-12T05:24:11.462Z,99832.22
2022-09-12T05:26:38.499Z,99802.03
2022-09-12T05:29:06.211Z,99799.16
2022-09-12T05:31:33.015Z,99859.97
2022-09-12T05:33:59.691Z,99811.78
2022-09-12T05:36:29.381Z,99796.81
2022-09-12T05:38:56.563Z,99803.97
2022-09-12T05:41:26.265Z,99798.44
2022-09-12T05:43:58.049Z,99824.75
2022-09-12T05:46:50.554Z,99809.41
2022-09-12T05:49:17.316Z,99831.13
2022-09-12T05:51:45.960Z,99886.72
2022-09-12T05:54:18.830Z,99861.94
2022-09-12T05:56:45.743Z,99799.78
2022-09-12T05:59:18.861Z,99895.66
2022-09-12T06:01:46.586Z,99794.25
2022-09-12T06:04:13.563Z,99832.47
2022-09-12T06:06:43.512Z,99837.06
2022-09-12T06:09:10.501Z,99841.50
2022-09-12T06:11:39.095Z,99835.19
2022-09-12T06:14:05.831Z,99853.25
2022-09-12T06:16:34.489Z,99886.69
2022-09-12T06:19:04.200Z,99864.63
2022-09-12T06:21:31.402Z,99845.13
2022-09-12T06:23:59.044Z,99824.00
2022-09-12T06:26:26.227Z,99862.16
2022-09-12T06:28:55.000Z,99878.59
2022-09-12T06:31:25.317Z,99903.97
2022-09-12T06:33:54.091Z,99853.72
2022-09-12T06:36:27.465Z,99837.13
2022-09-12T06:39:02.873Z,99820.16
2022-09-12T06:41:31.382Z,99868.03
2022-09-12T06:43:58.847Z,99845.69
2022-09-12T06:46:26.748Z,99852.78
2022-09-12T06:48:55.641Z,99836.53
2022-09-12T06:51:22.416Z,99876.88
2022-09-12T06:53:49.803Z,99837.34
2022-09-12T06:56:19.352Z,99839.72
2022-09-12T06:58:48.131Z,99870.34
2022-09-12T07:01:26.627Z,99856.97
2022-09-12T07:03:56.001Z,99852.50
2022-09-12T07:06:24.756Z,99854.09
2022-09-12T07:08:51.437Z,99879.00
2022-09-12T07:11:20.217Z,99892.00
2022-09-12T07:13:50.518Z,99872.25
2022-09-12T07:16:19.899Z,99843.66
2022-09-12T07:18:57.949Z,99878.97
2022-09-12T07:21:25.412Z,99896.59
2022-09-12T07:23:52.155Z,99872.91
2022-09-12T07:26:19.298Z,99859.66
2022-09-12T07:28:46.109Z,99889.28
2022-09-12T07:31:17.907Z,99859.66
2022-09-12T07:33:45.113Z,99882.66
2022-09-12T07:36:14.521Z,99886.50
2022-09-12T07:38:42.150Z,99868.22
2022-09-12T07:41:13.717Z,99901.88
2022-09-12T07:43:40.631Z,99890.31
2022-09-12T07:46:08.408Z,99850.81
2022-09-12T07:48:35.485Z,99882.53
2022-09-12T07:51:04.652Z,99888.03
2022-09-12T07:53:34.145Z,99890.41
2022-09-12T07:56:03.019Z,99881.88
2022-09-12T07:58:31.135Z,99891.72
2022-09-12T08:01:27.761Z,99919.72
2022-09-12T08:03:57.456Z,99885.72
2022-09-12T08:06:25.901Z,99905.13
2022-09-12T08:08:54.791Z,99924.44
2022-09-12T08:11:23.117Z,99891.28
2022-09-12T08:13:55.467Z,99933.41
2022-09-12T08:16:25.695Z,99940.78
2022-09-12T08:18:52.572Z,99912.34
2022-09-12T08:21:24.638Z,99910.31
2022-09-12T08:23:56.773Z,99935.13
2022-09-12T08:26:24.208Z,99913.44
2022-09-12T08:28:52.109Z,99912.06
2022-09-12T08:31:21.379Z,99962.47
2022-09-12T08:33:48.496Z,99940.69
2022-09-12T08:36:21.492Z,99912.88
2022-09-12T08:38:50.342Z,99932.94
2022-09-12T08:41:33.072Z,99960.75
2022-09-12T08:44:37.514Z,99962.97
2022-09-12T08:47:21.531Z,99893.94
2022-09-12T08:49:48.610Z,99938.97
2022-09-12T08:52:22.168Z,99934.31
2022-09-12T08:54:50.831Z,99956.63
2022-09-12T08:57:19.204Z,99966.84
2022-09-12T08:59:48.397Z,99970.00
2022-09-12T09:02:39.528Z,100007.69
2022-09-12T09:05:22.680Z,99946.25
2022-09-12T09:08:10.831Z,99982.31
2022-09-12T09:10:49.654Z,99956.22
2022-09-12T09:13:46.703Z,99952.25
2022-09-12T09:16:38.394Z,99989.88
2022-09-12T09:19:12.359Z,99996.84
2022-09-12T09:21:50.701Z,100000.75
2022-09-12T09:24:22.211Z,100006.75
2022-09-12T09:26:48.813Z,100005.22
2022-09-12T09:29:15.513Z,100013.00
2022-09-12T09:31:45.394Z,99947.97
2022-09-12T09:34:34.512Z,99966.66
2022-09-12T09:37:16.492Z,100001.13
2022-09-12T09:40:03.833Z,99996.56
2022-09-12T09:42:45.966Z,100015.25
2022-09-12T09:45:19.889Z,99965.53
2022-09-12T09:47:56.188Z,99979.72
2022-09-12T09:50:24.243Z,99943.75
2022-09-12T09:52:53.291Z,99979.16
2022-09-12T09:55:25.091Z,100005.25
2022-09-12T09:57:53.569Z,99997.91
2022-09-12T10:00:37.654Z,100015.59
2022-09-12T10:03:25.285Z,100029.66
2022-09-12T10:06:00.092Z,99964.91
2022-09-12T10:08:32.836Z,100011.94
2022-09-12T10:11:06.795Z,99994.28
2022-09-12T10:13:40.903Z,99885.38
2022-09-12T10:16:20.749Z,99992.38
2022-09-12T10:18:48.254Z,99957.16
2022-09-12T10:21:17.865Z,100012.63
2022-09-12T10:23:46.609Z,99985.50
2022-09-12T10:26:17.858Z,99966.56
2022-09-12T10:28:52.594Z,99970.78
2022-09-12T10:31:31.626Z,99962.41
2022-09-12T10:34:01.013Z,99960.13
2022-09-12T10:36:38.611Z,99976.66
2022-09-12T10:39:06.271Z,99973.28
2022-09-12T10:41:41.185Z,99938.56
2022-09-12T10:44:15.727Z,99983.66
2022-09-12T10:46:42.401Z,100014.44
2022-09-12T10:49:29.223Z,100012.91
2022-09-12T10:51:59.575Z,99979.63
2022-09-12T10:54:28.685Z,99948.09
2022-09-12T10:57:17.238Z,100008.28
2022-09-12T11:00:06.561Z,99942.75
2022-09-12T11:02:51.517Z,99975.94
2022-09-12T11:05:44.183Z,99991.63
2022-09-12T11:08:39.348Z,99971.53
2022-09-12T11:11:16.973Z,99939.41
2022-09-12T11:13:59.115Z,100011.34
2022-09-12T11:16:42.117Z,99992.25
2022-09-12T11:19:48.360Z,99977.88
2022-09-12T11:22:26.727Z,100015.06
2022-09-12T11:25:09.214Z,99985.66
2022-09-12T11:27:38.872Z,100013.28
2022-09-12T11:30:11.121Z,99986.28
2022-09-12T11:33:06.790Z,99956.19
2022-09-12T11:35:36.619Z,99944.59
2022-09-12T11:38:31.435Z,100000.31
2022-09-12T11:41:04.736Z,99962.50
2022-09-12T11:43:36.128Z,100005.31
2022-09-12T11:46:28.433Z,99933.13
2022-09-12T11:49:01.307Z,100004.34
2022-09-12T11:51:41.250Z,99969.78
2022-09-12T11:54:26.339Z,100010.91
2022-09-12T11:57:08.059Z,99962.09
2022-09-12T11:59:44.726Z,99941.38
2022-09-12T12:02:26.987Z,99947.53
2022-09-12T12:05:02.728Z,99974.41
2022-09-12T12:07:43.400Z,99940.28
2022-09-12T12:10:37.302Z,99963.78
2022-09-12T12:13:13.868Z,99968.94
2022-09-12T12:15:48.023Z,99919.16
2022-09-12T12:18:20.652Z,100013.59
2022-09-12T12:20:47.546Z,99994.56
2022-09-12T12:23:31.617Z,100012.06
2022-09-12T12:26:03.708Z,100007.84
2022-09-12T12:28:42.505Z,100012.09
2022-09-12T12:31:10.815Z,99974.13
2022-09-12T12:33:37.519Z,100012.22
2022-09-12T12:36:07.939Z,100007.47
2022-09-12T12:38:34.755Z,100015.56
2022-09-12T12:41:19.485Z,100023.38
2022-09-12T12:43:51.772Z,100019.63
2022-09-12T12:46:24.593Z,100034.75
2022-09-12T12:49:00.631Z,100027.31
2022-09-12T12:51:36.185Z,100006.03
2022-09-12T12:54:07.782Z,99981.13
2022-09-12T12:56:42.652Z,99989.50
2022-09-12T12:59:19.527Z,100004.75
2022-09-12T13:02:04.914Z,99966.47
2022-09-12T13:04:32.846Z,100007.56
2022-09-12T13:07:08.451Z,100039.06
2022-09-12T13:09:52.694Z,99993.09
2022-09-12T13:12:33.039Z,100018.34
2022-09-12T13:15:02.052Z,100031.53
2022-09-12T13:17:34.901Z,100031.25
2022-09-12T13:20:26.651Z,99984.63
2022-09-12T13:22:53.050Z,100017.63
2022-09-12T13:25:27.177Z,100036.94
2022-09-12T13:28:14.132Z,100034.78
2022-09-12T13:30:45.388Z,100025.69
2022-09-12T13:33:21.196Z,100026.03
2022-09-12T13:36:32.714Z,99969.38
2022-09-12T13:39:11.416Z,100020.44
2022-09-12T13:42:07.588Z,100022.31
2022-09-12T13:44:44.506Z,99946.69
2022-09-12T13:47:16.555Z,100030.38
2022-09-12T13:49:44.344Z,99986.84
2022-09-12T13:52:31.437Z,100020.59
2022-09-12T13:55:01.055Z,100012.22
2022-09-12T13:57:30.794Z,100013.91
2022-09-12T13:59:59.213Z,99945.41
2022-09-12T14:02:29.105Z,99943.88
2022-09-12T14:05:11.772Z,99960.38
2022-09-12T14:07:56.570Z,100015.78
2022-09-12T14:10:39.519Z,99952.88
2022-09-12T14:13:21.900Z,99999.16
2022-09-12T14:15:55.495Z,99870.47
2022-09-12T14:18:27.266Z,100019.88
2022-09-12T14:21:01.103Z,99976.94
2022-09-12T14:23:31.512Z,99950.75
2022-09-12T14:26:02.623Z,99965.47
2022-09-12T14:28:31.325Z,99951.19
2022-09-12T14:31:16.935Z,100019.88
2022-09-12T14:33:49.726Z,99939.69
2022-09-12T14:36:26.854Z,99979.84
2022-09-12T14:38:58.465Z,100009.94
2022-09-12T14:41:29.794Z,100014.72
2022-09-12T14:44:00.485Z,100031.34
2022-09-12T14:46:37.705Z,100031.75
2022-09-12T14:49:25.974Z,100041.75
2022-09-12T14:51:57.425Z,100046.31
2022-09-12T14:54:36.990Z,100047.75
2022-09-12T14:57:31.067Z,100017.28
2022-09-12T15:00:24.382Z,100049.19
2022-09-12T15:02:57.416Z,100014.97
2022-09-12T15:05:27.298Z,100043.34
2022-09-12T15:07:59.926Z,99999.66
2022-09-12T15:10:28.761Z,100028.91
2022-09-12T15:13:17.454Z,100060.56
2022-09-12T15:15:49.899Z,100036.91
2022-09-12T15:18:18.290Z,100010.50
2022-09-12T15:20:46.490Z,100036.28
2022-09-12T15:23:31.398Z,100051.16
2022-09-12T15:25:58.308Z,100023.19
2022-09-12T15:28:26.934Z,100078.63
2022-09-12T15:30:56.209Z,100101.13
2022-09-12T15:33:25.211Z,100054.78
2022-09-12T15:35:52.877Z,100058.22
2022-09-12T15:38:24.269Z,100044.28
2022-09-12T15:40:53.744Z,100089.44
2022-09-12T15:43:22.362Z,100058.50
2022-09-12T15:45:51.859Z,100020.81
2022-09-12T15:48:19.657Z,100039.47
2022-09-12T15:50:46.713Z,100053.78
2022-09-12T15:53:16.277Z,100068.94
2022-09-12T15:55:43.778Z,100067.16
2022-09-12T15:58:10.724Z,100031.25
2022-09-12T16:00:37.515Z,100018.91
2022-09-12T16:03:04.473Z,100027.06
2022-09-12T16:05:31.569Z,100055.81
2022-09-12T16:07:58.332Z,100013.25
2022-09-12T16:10:30.107Z,100042.47
2022-09-12T16:12:57.241Z,100038.50
2022-09-12T16:15:25.398Z,99998.19
2022-09-12T16:17:52.431Z,100010.34
2022-09-12T16:20:19.760Z,100040.31
2022-09-12T16:22:46.825Z,100049.22
2022-09-12T16:25:13.903Z,100056.06
2022-09-12T16:27:40.877Z,100094.00
2022-09-12T16:30:08.440Z,100081.81
2022-09-12T16:32:35.619Z,100025.56
2022-09-12T16:35:02.423Z,100053.22
2022-09-12T16:37:29.231Z,100050.16
2022-09-12T16:39:56.034Z,100047.16
2022-09-12T16:42:23.277Z,100055.13
2022-09-12T16:44:50.121Z,100093.06
2022-09-12T16:47:16.944Z,100001.06
2022-09-12T16:49:43.632Z,100018.66
2022-09-12T16:52:11.591Z,100033.09
2022-09-12T16:54:38.436Z,100055.00
2022-09-12T16:57:06.584Z,100025.03
2022-09-12T16:59:33.401Z,100074.78
2022-09-12T17:02:00.377Z,100056.81
2022-09-12T17:04:27.242Z,100055.47
2022-09-12T17:06:54.185Z,100052.34
2022-09-12T17:09:22.042Z,100021.47
2022-09-12T17:11:49.791Z,100041.88
2022-09-12T17:14:16.634Z,100051.63
2022-09-12T17:16:51.442Z,100092.16
2022-09-12T17:19:22.223Z,100086.41
2022-09-12T17:21:50.169Z,100040.31
2022-09-12T17:24:17.965Z,100080.16
2022-09-12T17:26:45.364Z,100027.91
2022-09-12T17:29:16.556Z,100045.22
2022-09-12T17:31:44.538Z,100067.72
2022-09-12T17:34:15.258Z,100063.84
2022-09-12T17:36:45.816Z,100069.88
2022-09-12T17:39:13.786Z,100093.88
2022-09-12T17:41:45.876Z,100038.88
2022-09-12T17:44:15.005Z,100107.84
2022-09-12T17:46:42.218Z,100097.16
2022-09-12T17:49:12.968Z,100131.91
2022-09-12T17:51:40.520Z,100090.00
2022-09-12T17:54:13.012Z,100130.53
2022-09-12T17:56:40.469Z,100138.56
2022-09-12T17:59:08.899Z,100108.03
2022-09-12T18:01:54.160Z,100107.47
2022-09-12T18:04:21.116Z,100111.63
2022-09-12T18:06:48.987Z,100157.75
2022-09-12T18:09:21.186Z,100069.00
2022-09-12T18:11:48.887Z,100127.06
2022-09-12T18:14:17.328Z,100125.78
2022-09-12T18:16:45.572Z,100148.16
2022-09-12T18:19:12.894Z,100124.84
2022-09-12T18:21:39.954Z,100126.81
2022-09-12T18:24:07.261Z,100150.19
2022-09-12T18:26:34.664Z,100184.63
2022-09-12T18:29:01.415Z,100154.22
2022-09-12T18:31:30.072Z,100124.28
2022-09-12T18:33:57.868Z,100173.59
2022-09-12T18:36:24.640Z,100178.03
2022-09-12T18:38:51.536Z,100188.47
2022-09-12T18:41:21.035Z,100163.69
2022-09-12T18:43:49.069Z,100140.50
2022-09-12T18:46:18.204Z,100160.91
2022-09-12T18:48:46.271Z,100202.00
2022-09-12T18:51:18.040Z,100120.34
2022-09-12T18:53:53.591Z,100220.69
2022-09-12T18:56:21.781Z,100168.69
2022-09-12T18:58:53.955Z,100163.63
2022-09-12T19:01:30.413Z,100187.38
2022-09-12T19:03:57.948Z,100196.47
2022-09-12T19:06:27.816Z,100174.56
2022-09-12T19:08:56.387Z,100233.25
2022-09-12T19:11:24.524Z,100176.34
2022-09-12T19:13:53.325Z,100192.00
2022-09-12T19:16:23.368Z,100202.66
2022-09-12T19:18:52.451Z,100177.94
2022-09-12T19:21:25.552Z,100172.47
2022-09-12T19:23:54.093Z,100162.63
2022-09-12T19:26:21.752Z,100186.47
2022-09-12T19:28:49.178Z,100188.50
2022-09-12T19:31:22.028Z,100235.03
2022-09-12T19:33:49.493Z,100159.78
2022-09-12T19:36:41.207Z,100168.44
2022-09-12T19:39:07.357Z,100224.59
2022-09-12T19:41:34.681Z,100255.69
2022-09-12T19:44:01.612Z,100213.19
2022-09-12T19:46:28.422Z,100209.06
2022-09-12T19:48:55.503Z,100203.41
2022-09-12T19:51:24.073Z,100261.63
2022-09-12T19:53:51.807Z,100274.34
2022-09-12T19:56:19.210Z,100233.66
2022-09-12T19:58:49.952Z,100191.09
2022-09-12T20:01:29.929Z,100240.25
2022-09-12T20:03:57.925Z,100253.88
2022-09-12T20:06:25.350Z,100269.34
2022-09-12T20:08:52.022Z,100277.66
2022-09-12T20:11:20.746Z,100296.22
2022-09-12T20:13:47.884Z,100231.78
2022-09-12T20:16:21.305Z,100256.22
2022-09-12T20:18:54.186Z,100278.53
2022-09-12T20:21:25.381Z,100233.19
2022-09-12T20:23:52.518Z,100246.56
2022-09-12T20:26:20.496Z,100302.81
2022-09-12T20:28:50.000Z,100295.75
2022-09-12T20:31:16.865Z,100266.09
2022-09-12T20:33:45.812Z,100294.66
2022-09-12T20:36:16.885Z,100293.22
2022-09-12T20:38:51.406Z,100308.09
2022-09-12T20:41:20.590Z,100288.41
2022-09-12T20:43:55.375Z,100289.00
2022-09-12T20:46:22.825Z,100286.44
2022-09-12T20:48:50.961Z,100294.16
2022-09-12T20:51:18.636Z,100257.44
2022-09-12T20:53:45.528Z,100259.31
2022-09-12T20:56:12.202Z,100243.81
2022-09-12T20:58:43.558Z,100264.13
2022-09-12T21:01:12.022Z,100290.94
2022-09-12T21:03:39.563Z,100300.16
2022-09-12T21:06:07.582Z,100308.50
2022-09-12T21:08:35.278Z,100296.47
2022-09-12T21:11:02.319Z,100288.75
2022-09-12T21:13:29.451Z,100305.88
2022-09-12T21:16:08.122Z,100311.28
2022-09-12T21:18:35.952Z,100314.66
2022-09-12T21:21:03.496Z,100323.50
2022-09-12T21:23:30.211Z,100314.75
2022-09-12T21:25:58.551Z,100316.66
2022-09-12T21:28:25.775Z,100319.38
2022-09-12T21:30:52.799Z,100331.03
2022-09-12T21:33:21.202Z,100331.81
2022-09-12T21:35:48.674Z,100330.06
2022-09-12T21:38:16.412Z,100332.75
2022-09-12T21:40:43.155Z,100317.72
2022-09-12T21:43:12.678Z,100331.63
2022-09-12T21:45:40.325Z,100335.69
2022-09-12T21:48:06.996Z,100340.19
2022-09-12T21:50:33.623Z,100349.13
2022-09-12T21:53:00.372Z,100345.38
2022-09-12T21:55:27.618Z,100346.13
2022-09-12T21:57:58.031Z,100328.44
2022-09-12T22:00:25.003Z,100339.25
2022-09-12T22:02:51.710Z,100335.63
2022-09-12T22:05:19.684Z,100341.31
2022-09-12T22:07:46.536Z,100331.94
2022-09-12T22:10:13.315Z,100355.59
2022-09-12T22:12:45.341Z,100354.06
2022-09-12T22:15:39.010Z,100355.81
2022-09-12T22:18:00.411Z,100341.44
2022-09-12T22:20:27.167Z,100358.66
2022-09-12T22:23:12.490Z,100367.97
2022-09-12T22:25:39.459Z,100372.13
2022-09-12T22:28:06.181Z,100381.53
2022-09-12T22:30:33.001Z,100375.16
2022-09-12T22:32:59.668Z,100369.94
2022-09-12T22:35:26.321Z,100359.09
2022-09-12T22:37:53.235Z,100354.94
2022-09-12T22:40:20.004Z,100353.72
2022-09-12T22:42:46.896Z,100348.44
2022-09-12T22:45:13.662Z,100307.28
2022-09-12T22:47:40.347Z,100336.84
2022-09-12T22:50:07.522Z,100329.34
2022-09-12T22:52:34.232Z,100343.53
2022-09-12T22:55:00.882Z,100335.28
2022-09-12T22:57:27.655Z,100348.84
2022-09-12T22:59:54.368Z,100342.94
2022-09-12T23:02:21.102Z,100341.91
2022-09-12T23:04:52.373Z,100351.63
2022-09-12T23:07:19.084Z,100345.88
2022-09-12T23:09:46.388Z,100347.50
2022-09-12T23:12:14.317Z,100338.56
2022-09-12T23:14:41.033Z,100314.16
2022-09-12T23:17:07.703Z,100324.81
2022-09-12T23:19:34.393Z,100340.00
2022-09-12T23:22:01.050Z,100331.16
2022-09-12T23:24:27.737Z,100330.31
2022-09-12T23:26:54.489Z,100344.59
2022-09-12T23:29:21.207Z,100350.66
2022-09-12T23:31:48.720Z,100354.59
2022-09-12T23:34:15.741Z,100336.13
2022-09-12T23:36:42.398Z,100346.47
2022-09-12T23:39:09.962Z,100336.19
2022-09-12T23:41:36.846Z,100341.31
2022-09-12T23:44:03.662Z,100326.91
2022-09-12T23:46:30.351Z,100331.72
2022-09-12T23:48:56.959Z,100336.50
2022-09-12T23:51:23.674Z,100342.44
2022-09-12T23:53:50.383Z,100333.50
2022-09-12T23:56:17.103Z,100367.38
2022-09-12T23:58:43.882Z,100362.47
